sensor_id;sensor_type;location;lat;lon;timestamp;temperature;humidity
14682;DHT22;7429;52.498;13.480;2023-08-24T00:02:19;19.00;99.90
14682;DHT22;7429;52.498;13.480;2023-08-24T00:05:24;18.90;99.90
14682;DHT22;7429;52.498;13.480;2023-08-24T00:08:27;19.00;99.90
14682;DHT22;7429;52.498;13.480;2023-08-24T00:11:30;18.90;99.90
14682;DHT22;7429;52.498;13.480;2023-08-24T00:14:34;18.90;99.90
14682;DHT22;7429;52.498;13.480;2023-08-24T00:17:37;18.80;99.90
14682;DHT22;7429;52.498;13.480;2023-08-24T00:20:42;18.80;99.90
14682;DHT22;7429;52.498;13.480;2023-08-24T00:23:45;18.80;99.90
14682;DHT22;7429;52.498;13.480;2023-08-24T00:26:51;18.70;99.90
14682;DHT22;7429;52.498;13.480;2023-08-24T00:29:55;18.70;99.90
14682;DHT22;7429;52.498;13.480;2023-08-24T00:32:58;18.80;99.90
14682;DHT22;7429;52.498;13.480;2023-08-24T00:36:05;18.70;99.90
14682;DHT22;7429;52.498;13.480;2023-08-24T00:39:08;18.70;99.90
14682;DHT22;7429;52.498;13.480;2023-08-24T00:42:12;18.70;99.90
14682;DHT22;7429;52.498;13.480;2023-08-24T00:45:18;18.70;99.90
14682;DHT22;7429;52.498;13.480;2023-08-24T00:48:23;18.70;99.90
14682;DHT22;7429;52.498;13.480;2023-08-24T00:51:30;18.70;99.90
14682;DHT22;7429;52.498;13.480;2023-08-24T00:54:33;18.60;99.90
14682;DHT22;7429;52.498;13.480;2023-08-24T00:57:40;18.60;99.90
14682;DHT22;7429;52.498;13.480;2023-08-24T01:00:43;18.60;99.90
14682;DHT22;7429;52.498;13.480;2023-08-24T01:03:47;18.50;99.90
14682;DHT22;7429;52.498;13.480;2023-08-24T01:06:51;18.40;99.90
14682;DHT22;7429;52.498;13.480;2023-08-24T01:09:55;18.40;99.90
14682;DHT22;7429;52.498;13.480;2023-08-24T01:13:04;18.30;99.90
14682;DHT22;7429;52.498;13.480;2023-08-24T01:16:16;18.40;99.90
14682;DHT22;7429;52.498;13.480;2023-08-24T01:19:34;18.30;99.90
14682;DHT22;7429;52.498;13.480;2023-08-24T01:22:47;18.20;99.90
14682;DHT22;7429;52.498;13.480;2023-08-24T01:31:20;18.10;99.90
14682;DHT22;7429;52.498;13.480;2023-08-24T01:34:23;18.00;99.90
14682;DHT22;7429;52.498;13.480;2023-08-24T01:37:30;18.00;99.90
14682;DHT22;7429;52.498;13.480;2023-08-24T01:40:50;18.10;99.90
14682;DHT22;7429;52.498;13.480;2023-08-24T01:43:57;18.10;99.90
14682;DHT22;7429;52.498;13.480;2023-08-24T01:47:06;18.20;99.90
14682;DHT22;7429;52.498;13.480;2023-08-24T01:50:11;18.10;99.90
14682;DHT22;7429;52.498;13.480;2023-08-24T01:53:14;18.20;99.90
14682;DHT22;7429;52.498;13.480;2023-08-24T01:56:17;18.20;99.90
14682;DHT22;7429;52.498;13.480;2023-08-24T01:59:20;18.30;99.90
14682;DHT22;7429;52.498;13.480;2023-08-24T02:02:27;18.30;99.90
14682;DHT22;7429;52.498;13.480;2023-08-24T02:05:30;18.30;99.90
14682;DHT22;7429;52.498;13.480;2023-08-24T02:08:35;18.40;99.90
14682;DHT22;7429;52.498;13.480;2023-08-24T02:11:40;18.40;99.90
14682;DHT22;7429;52.498;13.480;2023-08-24T02:14:43;18.40;99.90
14682;DHT22;7429;52.498;13.480;2023-08-24T02:17:47;18.40;99.90
14682;DHT22;7429;52.498;13.480;2023-08-24T02:20:51;18.40;99.90
14682;DHT22;7429;52.498;13.480;2023-08-24T02:23:54;18.40;99.90
14682;DHT22;7429;52.498;13.480;2023-08-24T02:26:58;18.50;99.90
14682;DHT22;7429;52.498;13.480;2023-08-24T02:30:01;18.50;99.90
14682;DHT22;7429;52.498;13.480;2023-08-24T02:33:06;18.50;99.90
14682;DHT22;7429;52.498;13.480;2023-08-24T02:36:09;18.50;99.90
14682;DHT22;7429;52.498;13.480;2023-08-24T02:39:12;18.50;99.90
14682;DHT22;7429;52.498;13.480;2023-08-24T02:42:17;18.60;99.90
14682;DHT22;7429;52.498;13.480;2023-08-24T02:45:20;18.60;99.90
14682;DHT22;7429;52.498;13.480;2023-08-24T02:48:24;18.70;99.90
14682;DHT22;7429;52.498;13.480;2023-08-24T02:51:28;18.80;99.90
14682;DHT22;7429;52.498;13.480;2023-08-24T02:54:31;18.80;99.90
14682;DHT22;7429;52.498;13.480;2023-08-24T02:57:35;18.90;99.90
14682;DHT22;7429;52.498;13.480;2023-08-24T03:00:38;18.90;99.90
14682;DHT22;7429;52.498;13.480;2023-08-24T03:03:43;18.90;99.90
14682;DHT22;7429;52.498;13.480;2023-08-24T03:06:46;18.90;99.90
14682;DHT22;7429;52.498;13.480;2023-08-24T03:09:49;18.90;99.90
14682;DHT22;7429;52.498;13.480;2023-08-24T03:12:52;19.00;99.90
14682;DHT22;7429;52.498;13.480;2023-08-24T03:15:56;19.00;99.90
14682;DHT22;7429;52.498;13.480;2023-08-24T03:19:04;19.00;99.90
14682;DHT22;7429;52.498;13.480;2023-08-24T03:22:09;19.00;99.90
14682;DHT22;7429;52.498;13.480;2023-08-24T03:25:12;19.00;99.90
14682;DHT22;7429;52.498;13.480;2023-08-24T03:28:15;19.00;99.90
14682;DHT22;7429;52.498;13.480;2023-08-24T03:31:18;19.00;99.90
14682;DHT22;7429;52.498;13.480;2023-08-24T03:34:23;19.00;99.90
14682;DHT22;7429;52.498;13.480;2023-08-24T03:37:26;19.00;99.90
14682;DHT22;7429;52.498;13.480;2023-08-24T03:40:29;19.00;99.90
14682;DHT22;7429;52.498;13.480;2023-08-24T03:43:33;19.00;99.90
14682;DHT22;7429;52.498;13.480;2023-08-24T03:46:37;19.00;99.90
14682;DHT22;7429;52.498;13.480;2023-08-24T03:49:43;19.10;99.90
14682;DHT22;7429;52.498;13.480;2023-08-24T03:52:46;19.00;99.90
14682;DHT22;7429;52.498;13.480;2023-08-24T03:55:51;19.00;99.90
14682;DHT22;7429;52.498;13.480;2023-08-24T03:58:55;19.00;99.90
14682;DHT22;7429;52.498;13.480;2023-08-24T04:01:59;19.00;99.90
14682;DHT22;7429;52.498;13.480;2023-08-24T04:05:05;19.00;99.90
14682;DHT22;7429;52.498;13.480;2023-08-24T04:08:09;19.00;99.90
14682;DHT22;7429;52.498;13.480;2023-08-24T04:11:12;19.00;99.90
14682;DHT22;7429;52.498;13.480;2023-08-24T04:14:15;19.00;99.90
14682;DHT22;7429;52.498;13.480;2023-08-24T04:17:19;18.90;99.90
14682;DHT22;7429;52.498;13.480;2023-08-24T04:20:24;18.90;99.90
14682;DHT22;7429;52.498;13.480;2023-08-24T04:23:28;18.90;99.90
14682;DHT22;7429;52.498;13.480;2023-08-24T04:26:31;18.90;99.90
14682;DHT22;7429;52.498;13.480;2023-08-24T04:29:34;18.90;99.90
14682;DHT22;7429;52.498;13.480;2023-08-24T04:32:37;18.90;99.90
14682;DHT22;7429;52.498;13.480;2023-08-24T04:35:42;18.90;99.90
14682;DHT22;7429;52.498;13.480;2023-08-24T04:38:45;18.90;99.90
14682;DHT22;7429;52.498;13.480;2023-08-24T04:41:50;18.90;99.90
14682;DHT22;7429;52.498;13.480;2023-08-24T04:44:53;18.90;99.90
14682;DHT22;7429;52.498;13.480;2023-08-24T04:48:00;18.90;99.90
14682;DHT22;7429;52.498;13.480;2023-08-24T04:51:06;19.00;99.90
14682;DHT22;7429;52.498;13.480;2023-08-24T04:54:09;18.90;99.90
14682;DHT22;7429;52.498;13.480;2023-08-24T04:57:12;19.00;99.90
14682;DHT22;7429;52.498;13.480;2023-08-24T05:00:17;19.00;99.90
14682;DHT22;7429;52.498;13.480;2023-08-24T05:03:21;19.00;99.90
14682;DHT22;7429;52.498;13.480;2023-08-24T05:06:26;18.90;99.90
14682;DHT22;7429;52.498;13.480;2023-08-24T05:09:29;18.90;99.90
14682;DHT22;7429;52.498;13.480;2023-08-24T05:12:34;18.90;99.90
14682;DHT22;7429;52.498;13.480;2023-08-24T05:15:38;18.90;99.90
14682;DHT22;7429;52.498;13.480;2023-08-24T05:18:41;18.90;99.90
14682;DHT22;7429;52.498;13.480;2023-08-24T05:21:45;18.90;99.90
14682;DHT22;7429;52.498;13.480;2023-08-24T05:24:49;19.00;99.90
14682;DHT22;7429;52.498;13.480;2023-08-24T05:27:52;19.00;99.90
14682;DHT22;7429;52.498;13.480;2023-08-24T05:30:58;19.10;99.90
14682;DHT22;7429;52.498;13.480;2023-08-24T05:34:02;19.20;99.90
14682;DHT22;7429;52.498;13.480;2023-08-24T05:37:06;19.30;99.90
14682;DHT22;7429;52.498;13.480;2023-08-24T05:40:10;19.30;99.90
14682;DHT22;7429;52.498;13.480;2023-08-24T05:43:13;19.40;99.90
14682;DHT22;7429;52.498;13.480;2023-08-24T05:46:16;19.40;99.90
14682;DHT22;7429;52.498;13.480;2023-08-24T05:49:20;19.50;99.90
14682;DHT22;7429;52.498;13.480;2023-08-24T05:52:24;19.50;99.90
14682;DHT22;7429;52.498;13.480;2023-08-24T05:55:27;19.60;99.90
14682;DHT22;7429;52.498;13.480;2023-08-24T05:58:30;19.60;99.90
14682;DHT22;7429;52.498;13.480;2023-08-24T06:01:34;19.80;99.90
14682;DHT22;7429;52.498;13.480;2023-08-24T06:04:40;19.90;99.90
14682;DHT22;7429;52.498;13.480;2023-08-24T06:07:44;19.90;99.90
14682;DHT22;7429;52.498;13.480;2023-08-24T06:10:48;19.90;99.90
14682;DHT22;7429;52.498;13.480;2023-08-24T06:13:51;20.10;99.90
14682;DHT22;7429;52.498;13.480;2023-08-24T06:16:56;20.10;99.90
14682;DHT22;7429;52.498;13.480;2023-08-24T06:19:59;20.20;99.90
14682;DHT22;7429;52.498;13.480;2023-08-24T06:23:04;20.30;99.90
14682;DHT22;7429;52.498;13.480;2023-08-24T06:26:08;20.40;99.90
14682;DHT22;7429;52.498;13.480;2023-08-24T06:29:11;20.50;99.90
14682;DHT22;7429;52.498;13.480;2023-08-24T06:32:14;20.70;99.90
14682;DHT22;7429;52.498;13.480;2023-08-24T06:35:21;20.80;99.90
14682;DHT22;7429;52.498;13.480;2023-08-24T06:38:26;20.80;99.90
14682;DHT22;7429;52.498;13.480;2023-08-24T06:41:33;20.90;99.90
14682;DHT22;7429;52.498;13.480;2023-08-24T06:44:41;20.90;99.90
14682;DHT22;7429;52.498;13.480;2023-08-24T06:47:44;20.90;99.90
14682;DHT22;7429;52.498;13.480;2023-08-24T06:50:48;20.90;99.90
14682;DHT22;7429;52.498;13.480;2023-08-24T06:53:52;21.10;99.90
14682;DHT22;7429;52.498;13.480;2023-08-24T06:56:55;21.20;99.90
14682;DHT22;7429;52.498;13.480;2023-08-24T06:59:58;21.30;99.90
14682;DHT22;7429;52.498;13.480;2023-08-24T07:03:07;21.40;99.90
14682;DHT22;7429;52.498;13.480;2023-08-24T07:06:27;21.50;99.90
14682;DHT22;7429;52.498;13.480;2023-08-24T07:09:34;21.60;99.90
14682;DHT22;7429;52.498;13.480;2023-08-24T07:12:47;21.70;99.90
14682;DHT22;7429;52.498;13.480;2023-08-24T07:15:54;21.80;99.90
14682;DHT22;7429;52.498;13.480;2023-08-24T07:18:58;21.90;99.90
14682;DHT22;7429;52.498;13.480;2023-08-24T07:22:02;22.00;99.90
14682;DHT22;7429;52.498;13.480;2023-08-24T07:25:07;22.10;99.90
14682;DHT22;7429;52.498;13.480;2023-08-24T07:28:13;22.20;99.90
14682;DHT22;7429;52.498;13.480;2023-08-24T07:31:16;22.20;99.90
14682;DHT22;7429;52.498;13.480;2023-08-24T07:34:20;22.40;99.90
14682;DHT22;7429;52.498;13.480;2023-08-24T07:37:24;22.70;99.90
14682;DHT22;7429;52.498;13.480;2023-08-24T07:40:29;22.80;99.90
14682;DHT22;7429;52.498;13.480;2023-08-24T07:43:32;23.00;99.90
14682;DHT22;7429;52.498;13.480;2023-08-24T07:46:35;23.10;99.90
14682;DHT22;7429;52.498;13.480;2023-08-24T07:49:38;23.20;99.90
14682;DHT22;7429;52.498;13.480;2023-08-24T07:52:45;23.30;99.90
14682;DHT22;7429;52.498;13.480;2023-08-24T07:55:53;23.40;99.90
14682;DHT22;7429;52.498;13.480;2023-08-24T07:58:58;23.50;99.90
14682;DHT22;7429;52.498;13.480;2023-08-24T08:02:06;23.60;99.90
14682;DHT22;7429;52.498;13.480;2023-08-24T08:05:11;23.70;99.90
14682;DHT22;7429;52.498;13.480;2023-08-24T08:08:15;23.90;99.90
14682;DHT22;7429;52.498;13.480;2023-08-24T08:11:19;24.10;99.90
14682;DHT22;7429;52.498;13.480;2023-08-24T08:14:30;24.20;99.90
14682;DHT22;7429;52.498;13.480;2023-08-24T08:17:33;24.40;99.90
14682;DHT22;7429;52.498;13.480;2023-08-24T08:20:39;24.40;99.90
14682;DHT22;7429;52.498;13.480;2023-08-24T08:23:44;24.50;99.90
14682;DHT22;7429;52.498;13.480;2023-08-24T08:26:51;24.50;99.90
14682;DHT22;7429;52.498;13.480;2023-08-24T08:30:03;24.60;99.90
14682;DHT22;7429;52.498;13.480;2023-08-24T08:33:10;24.80;99.90
14682;DHT22;7429;52.498;13.480;2023-08-24T08:36:13;24.80;99.90
14682;DHT22;7429;52.498;13.480;2023-08-24T08:39:17;24.80;99.90
14682;DHT22;7429;52.498;13.480;2023-08-24T08:42:29;24.80;99.90
14682;DHT22;7429;52.498;13.480;2023-08-24T08:45:33;24.80;99.90
14682;DHT22;7429;52.498;13.480;2023-08-24T08:48:36;24.70;99.90
14682;DHT22;7429;52.498;13.480;2023-08-24T08:51:46;24.60;99.90
14682;DHT22;7429;52.498;13.480;2023-08-24T08:55:19;24.50;99.90
14682;DHT22;7429;52.498;13.480;2023-08-24T08:58:25;24.50;99.90
14682;DHT22;7429;52.498;13.480;2023-08-24T09:01:28;24.60;99.90
14682;DHT22;7429;52.498;13.480;2023-08-24T09:04:34;24.60;99.90
14682;DHT22;7429;52.498;13.480;2023-08-24T09:07:58;24.70;99.90
14682;DHT22;7429;52.498;13.480;2023-08-24T09:11:58;24.60;99.90
14682;DHT22;7429;52.498;13.480;2023-08-24T09:15:14;24.60;99.90
14682;DHT22;7429;52.498;13.480;2023-08-24T09:18:19;24.40;99.90
14682;DHT22;7429;52.498;13.480;2023-08-24T09:21:27;24.40;99.90
14682;DHT22;7429;52.498;13.480;2023-08-24T09:24:37;24.60;99.90
14682;DHT22;7429;52.498;13.480;2023-08-24T09:27:44;24.80;99.90
14682;DHT22;7429;52.498;13.480;2023-08-24T09:30:52;24.90;99.90
14682;DHT22;7429;52.498;13.480;2023-08-24T09:34:00;24.90;99.90
14682;DHT22;7429;52.498;13.480;2023-08-24T09:37:14;24.90;99.90
14682;DHT22;7429;52.498;13.480;2023-08-24T09:40:24;24.90;99.90
14682;DHT22;7429;52.498;13.480;2023-08-24T09:43:30;25.10;99.90
14682;DHT22;7429;52.498;13.480;2023-08-24T09:46:36;25.40;99.90
14682;DHT22;7429;52.498;13.480;2023-08-24T09:49:40;25.60;99.90
14682;DHT22;7429;52.498;13.480;2023-08-24T09:52:44;25.80;99.90
14682;DHT22;7429;52.498;13.480;2023-08-24T09:55:54;26.00;99.90
14682;DHT22;7429;52.498;13.480;2023-08-24T09:59:00;26.10;99.90
14682;DHT22;7429;52.498;13.480;2023-08-24T10:02:20;26.20;99.90
14682;DHT22;7429;52.498;13.480;2023-08-24T10:05:26;26.30;99.90
14682;DHT22;7429;52.498;13.480;2023-08-24T10:08:54;26.40;99.90
14682;DHT22;7429;52.498;13.480;2023-08-24T10:12:02;26.50;99.90
14682;DHT22;7429;52.498;13.480;2023-08-24T10:15:08;26.70;99.90
14682;DHT22;7429;52.498;13.480;2023-08-24T10:18:15;26.90;99.90
14682;DHT22;7429;52.498;13.480;2023-08-24T10:21:19;27.10;99.90
14682;DHT22;7429;52.498;13.480;2023-08-24T10:24:23;27.10;99.90
14682;DHT22;7429;52.498;13.480;2023-08-24T10:27:27;27.10;99.90
14682;DHT22;7429;52.498;13.480;2023-08-24T10:30:32;27.10;99.90
14682;DHT22;7429;52.498;13.480;2023-08-24T10:33:38;27.10;99.90
14682;DHT22;7429;52.498;13.480;2023-08-24T10:36:42;27.20;99.90
14682;DHT22;7429;52.498;13.480;2023-08-24T10:39:46;27.30;99.90
14682;DHT22;7429;52.498;13.480;2023-08-24T10:42:50;27.50;99.90
14682;DHT22;7429;52.498;13.480;2023-08-24T10:45:55;27.60;99.90
14682;DHT22;7429;52.498;13.480;2023-08-24T10:49:04;27.80;99.90
14682;DHT22;7429;52.498;13.480;2023-08-24T10:52:17;27.90;99.90
14682;DHT22;7429;52.498;13.480;2023-08-24T10:55:23;28.10;99.90
14682;DHT22;7429;52.498;13.480;2023-08-24T10:58:33;28.20;99.90
14682;DHT22;7429;52.498;13.480;2023-08-24T11:01:38;28.30;99.90
14682;DHT22;7429;52.498;13.480;2023-08-24T11:05:03;28.50;99.90
14682;DHT22;7429;52.498;13.480;2023-08-24T11:08:08;28.70;99.90
14682;DHT22;7429;52.498;13.480;2023-08-24T11:11:18;28.40;99.90
14682;DHT22;7429;52.498;13.480;2023-08-24T11:14:23;28.50;99.90
14682;DHT22;7429;52.498;13.480;2023-08-24T11:17:30;28.70;99.90
14682;DHT22;7429;52.498;13.480;2023-08-24T11:20:36;29.00;99.90
14682;DHT22;7429;52.498;13.480;2023-08-24T11:23:39;29.10;99.90
14682;DHT22;7429;52.498;13.480;2023-08-24T11:26:43;29.30;99.90
14682;DHT22;7429;52.498;13.480;2023-08-24T11:29:58;29.40;99.90
14682;DHT22;7429;52.498;13.480;2023-08-24T11:33:03;29.70;99.90
14682;DHT22;7429;52.498;13.480;2023-08-24T11:36:11;29.70;99.90
14682;DHT22;7429;52.498;13.480;2023-08-24T11:39:15;29.60;99.90
14682;DHT22;7429;52.498;13.480;2023-08-24T11:42:21;29.90;99.90
14682;DHT22;7429;52.498;13.480;2023-08-24T11:45:29;30.10;99.90
14682;DHT22;7429;52.498;13.480;2023-08-24T11:48:33;30.10;99.90
14682;DHT22;7429;52.498;13.480;2023-08-24T11:51:39;30.30;99.90
14682;DHT22;7429;52.498;13.480;2023-08-24T11:54:45;30.50;99.90
14682;DHT22;7429;52.498;13.480;2023-08-24T11:57:48;30.80;99.90
14682;DHT22;7429;52.498;13.480;2023-08-24T12:00:51;30.80;99.90
14682;DHT22;7429;52.498;13.480;2023-08-24T12:03:54;30.60;99.90
14682;DHT22;7429;52.498;13.480;2023-08-24T12:06:59;30.60;99.90
14682;DHT22;7429;52.498;13.480;2023-08-24T12:10:03;30.80;99.90
14682;DHT22;7429;52.498;13.480;2023-08-24T12:13:07;31.10;99.90
14682;DHT22;7429;52.498;13.480;2023-08-24T12:16:15;30.90;99.90
14682;DHT22;7429;52.498;13.480;2023-08-24T12:19:21;30.70;99.90
14682;DHT22;7429;52.498;13.480;2023-08-24T12:22:32;30.90;99.90
14682;DHT22;7429;52.498;13.480;2023-08-24T12:25:43;31.20;99.90
14682;DHT22;7429;52.498;13.480;2023-08-24T12:28:49;31.60;99.90
14682;DHT22;7429;52.498;13.480;2023-08-24T12:31:57;31.60;99.90
14682;DHT22;7429;52.498;13.480;2023-08-24T12:35:00;31.70;99.90
14682;DHT22;7429;52.498;13.480;2023-08-24T12:38:05;31.90;99.90
14682;DHT22;7429;52.498;13.480;2023-08-24T12:41:08;31.90;99.90
14682;DHT22;7429;52.498;13.480;2023-08-24T12:44:13;31.90;99.90
14682;DHT22;7429;52.498;13.480;2023-08-24T12:47:17;32.00;99.90
14682;DHT22;7429;52.498;13.480;2023-08-24T12:50:20;32.00;99.90
14682;DHT22;7429;52.498;13.480;2023-08-24T12:53:27;32.10;99.90
14682;DHT22;7429;52.498;13.480;2023-08-24T12:56:30;32.30;99.90
14682;DHT22;7429;52.498;13.480;2023-08-24T12:59:33;32.40;99.90
14682;DHT22;7429;52.498;13.480;2023-08-24T13:02:36;32.40;99.90
14682;DHT22;7429;52.498;13.480;2023-08-24T13:05:40;32.30;99.90
14682;DHT22;7429;52.498;13.480;2023-08-24T13:08:45;32.40;99.90
14682;DHT22;7429;52.498;13.480;2023-08-24T13:11:49;32.60;99.90
14682;DHT22;7429;52.498;13.480;2023-08-24T13:14:53;32.40;99.90
14682;DHT22;7429;52.498;13.480;2023-08-24T13:17:56;32.20;99.90
14682;DHT22;7429;52.498;13.480;2023-08-24T13:21:00;32.40;99.90
14682;DHT22;7429;52.498;13.480;2023-08-24T13:24:04;32.20;99.90
14682;DHT22;7429;52.498;13.480;2023-08-24T13:27:07;32.10;99.90
14682;DHT22;7429;52.498;13.480;2023-08-24T13:30:13;32.20;99.90
14682;DHT22;7429;52.498;13.480;2023-08-24T13:33:16;32.40;99.90
14682;DHT22;7429;52.498;13.480;2023-08-24T13:36:20;32.70;99.90
14682;DHT22;7429;52.498;13.480;2023-08-24T13:39:25;32.80;99.90
14682;DHT22;7429;52.498;13.480;2023-08-24T13:42:30;32.70;99.90
14682;DHT22;7429;52.498;13.480;2023-08-24T13:45:33;32.60;99.90
14682;DHT22;7429;52.498;13.480;2023-08-24T13:48:37;32.50;99.90
14682;DHT22;7429;52.498;13.480;2023-08-24T13:51:40;32.60;99.90
14682;DHT22;7429;52.498;13.480;2023-08-24T13:54:45;32.60;99.90
14682;DHT22;7429;52.498;13.480;2023-08-24T13:58:08;32.60;99.90
14682;DHT22;7429;52.498;13.480;2023-08-24T14:01:11;32.70;99.90
14682;DHT22;7429;52.498;13.480;2023-08-24T14:04:14;32.70;99.90
14682;DHT22;7429;52.498;13.480;2023-08-24T14:07:18;32.90;99.90
14682;DHT22;7429;52.498;13.480;2023-08-24T14:10:24;33.10;99.90
14682;DHT22;7429;52.498;13.480;2023-08-24T14:13:27;33.50;99.90
14682;DHT22;7429;52.498;13.480;2023-08-24T14:16:32;33.60;99.90
14682;DHT22;7429;52.498;13.480;2023-08-24T14:19:36;33.40;99.90
14682;DHT22;7429;52.498;13.480;2023-08-24T14:22:39;33.20;99.90
14682;DHT22;7429;52.498;13.480;2023-08-24T14:25:45;32.80;99.90
14682;DHT22;7429;52.498;13.480;2023-08-24T14:28:51;32.70;99.90
14682;DHT22;7429;52.498;13.480;2023-08-24T14:31:56;32.70;99.90
14682;DHT22;7429;52.498;13.480;2023-08-24T14:35:00;32.90;99.90
14682;DHT22;7429;52.498;13.480;2023-08-24T14:38:05;33.00;99.90
14682;DHT22;7429;52.498;13.480;2023-08-24T14:41:11;33.10;99.90
14682;DHT22;7429;52.498;13.480;2023-08-24T14:44:15;33.20;99.90
14682;DHT22;7429;52.498;13.480;2023-08-24T14:47:18;33.20;99.90
14682;DHT22;7429;52.498;13.480;2023-08-24T14:50:22;33.30;99.90
14682;DHT22;7429;52.498;13.480;2023-08-24T14:53:26;33.30;99.90
14682;DHT22;7429;52.498;13.480;2023-08-24T14:56:32;33.20;99.90
14682;DHT22;7429;52.498;13.480;2023-08-24T14:59:35;33.10;99.90
14682;DHT22;7429;52.498;13.480;2023-08-24T15:02:41;32.90;99.90
14682;DHT22;7429;52.498;13.480;2023-08-24T15:05:45;32.90;99.90
14682;DHT22;7429;52.498;13.480;2023-08-24T15:08:49;32.90;99.90
14682;DHT22;7429;52.498;13.480;2023-08-24T15:11:55;33.20;99.90
14682;DHT22;7429;52.498;13.480;2023-08-24T15:15:02;33.20;99.90
14682;DHT22;7429;52.498;13.480;2023-08-24T15:18:10;32.90;99.90
14682;DHT22;7429;52.498;13.480;2023-08-24T15:21:16;32.90;99.90
14682;DHT22;7429;52.498;13.480;2023-08-24T15:24:20;33.10;99.90
14682;DHT22;7429;52.498;13.480;2023-08-24T15:27:24;33.20;99.90
14682;DHT22;7429;52.498;13.480;2023-08-24T15:30:30;33.50;99.90
14682;DHT22;7429;52.498;13.480;2023-08-24T15:33:33;33.40;99.90
14682;DHT22;7429;52.498;13.480;2023-08-24T15:36:39;33.30;99.90
14682;DHT22;7429;52.498;13.480;2023-08-24T15:39:43;33.50;99.90
14682;DHT22;7429;52.498;13.480;2023-08-24T15:42:48;33.40;99.90
14682;DHT22;7429;52.498;13.480;2023-08-24T15:45:51;33.20;99.90
14682;DHT22;7429;52.498;13.480;2023-08-24T15:48:54;32.90;99.90
14682;DHT22;7429;52.498;13.480;2023-08-24T15:51:58;32.80;99.90
14682;DHT22;7429;52.498;13.480;2023-08-24T15:55:05;32.40;99.90
14682;DHT22;7429;52.498;13.480;2023-08-24T15:58:13;32.10;99.90
14682;DHT22;7429;52.498;13.480;2023-08-24T16:01:17;31.80;99.90
14682;DHT22;7429;52.498;13.480;2023-08-24T16:04:20;31.70;99.90
14682;DHT22;7429;52.498;13.480;2023-08-24T16:07:23;31.50;99.90
14682;DHT22;7429;52.498;13.480;2023-08-24T16:10:30;31.20;99.90
14682;DHT22;7429;52.498;13.480;2023-08-24T16:13:38;31.10;99.90
14682;DHT22;7429;52.498;13.480;2023-08-24T16:16:43;30.80;99.90
14682;DHT22;7429;52.498;13.480;2023-08-24T16:19:48;30.70;99.90
14682;DHT22;7429;52.498;13.480;2023-08-24T16:22:51;30.50;99.90
14682;DHT22;7429;52.498;13.480;2023-08-24T16:25:55;30.40;99.90
14682;DHT22;7429;52.498;13.480;2023-08-24T16:29:00;30.30;99.90
14682;DHT22;7429;52.498;13.480;2023-08-24T16:32:03;30.10;99.90
14682;DHT22;7429;52.498;13.480;2023-08-24T16:35:09;29.80;99.90
14682;DHT22;7429;52.498;13.480;2023-08-24T16:38:12;29.80;99.90
14682;DHT22;7429;52.498;13.480;2023-08-24T16:41:15;29.70;99.90
14682;DHT22;7429;52.498;13.480;2023-08-24T16:44:27;29.60;99.90
14682;DHT22;7429;52.498;13.480;2023-08-24T16:47:30;29.40;99.90
14682;DHT22;7429;52.498;13.480;2023-08-24T16:50:34;29.20;99.90
14682;DHT22;7429;52.498;13.480;2023-08-24T16:53:37;29.00;99.90
14682;DHT22;7429;52.498;13.480;2023-08-24T16:56:43;28.90;99.90
14682;DHT22;7429;52.498;13.480;2023-08-24T16:59:48;28.80;99.90
14682;DHT22;7429;52.498;13.480;2023-08-24T17:03:02;28.80;99.90
14682;DHT22;7429;52.498;13.480;2023-08-24T17:06:06;28.60;99.90
14682;DHT22;7429;52.498;13.480;2023-08-24T17:09:11;28.40;99.90
14682;DHT22;7429;52.498;13.480;2023-08-24T17:12:14;28.10;99.90
14682;DHT22;7429;52.498;13.480;2023-08-24T17:15:21;27.80;99.90
14682;DHT22;7429;52.498;13.480;2023-08-24T17:18:24;27.70;99.90
14682;DHT22;7429;52.498;13.480;2023-08-24T17:21:27;27.50;99.90
14682;DHT22;7429;52.498;13.480;2023-08-24T17:24:31;27.40;99.90
14682;DHT22;7429;52.498;13.480;2023-08-24T17:27:34;27.40;99.90
14682;DHT22;7429;52.498;13.480;2023-08-24T17:30:47;27.20;99.90
14682;DHT22;7429;52.498;13.480;2023-08-24T17:33:52;27.00;99.90
14682;DHT22;7429;52.498;13.480;2023-08-24T17:36:56;26.90;99.90
14682;DHT22;7429;52.498;13.480;2023-08-24T17:39:59;26.80;99.90
14682;DHT22;7429;52.498;13.480;2023-08-24T17:43:05;26.70;99.90
14682;DHT22;7429;52.498;13.480;2023-08-24T17:46:09;26.70;99.90
14682;DHT22;7429;52.498;13.480;2023-08-24T17:49:15;26.60;99.90
14682;DHT22;7429;52.498;13.480;2023-08-24T17:52:21;26.40;99.90
14682;DHT22;7429;52.498;13.480;2023-08-24T17:55:27;26.20;99.90
14682;DHT22;7429;52.498;13.480;2023-08-24T17:58:33;26.20;99.90
14682;DHT22;7429;52.498;13.480;2023-08-24T18:01:38;26.10;99.90
14682;DHT22;7429;52.498;13.480;2023-08-24T18:04:44;26.00;99.90
14682;DHT22;7429;52.498;13.480;2023-08-24T18:07:48;25.90;99.90
14682;DHT22;7429;52.498;13.480;2023-08-24T18:11:00;25.70;99.90
14682;DHT22;7429;52.498;13.480;2023-08-24T18:14:04;25.70;99.90
14682;DHT22;7429;52.498;13.480;2023-08-24T18:17:09;25.60;99.90
14682;DHT22;7429;52.498;13.480;2023-08-24T18:20:13;25.60;99.90
14682;DHT22;7429;52.498;13.480;2023-08-24T18:23:17;25.40;99.90
14682;DHT22;7429;52.498;13.480;2023-08-24T18:26:21;25.30;99.90
14682;DHT22;7429;52.498;13.480;2023-08-24T18:29:27;25.10;99.90
14682;DHT22;7429;52.498;13.480;2023-08-24T18:32:34;24.90;99.90
14682;DHT22;7429;52.498;13.480;2023-08-24T18:35:37;24.80;99.90
14682;DHT22;7429;52.498;13.480;2023-08-24T18:38:43;24.70;99.90
14682;DHT22;7429;52.498;13.480;2023-08-24T18:41:47;24.80;99.90
14682;DHT22;7429;52.498;13.480;2023-08-24T18:44:52;24.80;99.90
14682;DHT22;7429;52.498;13.480;2023-08-24T18:47:59;24.90;99.90
14682;DHT22;7429;52.498;13.480;2023-08-24T18:51:05;24.90;99.90
14682;DHT22;7429;52.498;13.480;2023-08-24T18:54:08;24.90;99.90
14682;DHT22;7429;52.498;13.480;2023-08-24T18:57:13;24.70;99.90
14682;DHT22;7429;52.498;13.480;2023-08-24T19:00:22;24.70;99.90
14682;DHT22;7429;52.498;13.480;2023-08-24T19:03:33;24.50;99.90
14682;DHT22;7429;52.498;13.480;2023-08-24T19:06:40;24.40;99.90
14682;DHT22;7429;52.498;13.480;2023-08-24T19:09:48;24.30;99.90
14682;DHT22;7429;52.498;13.480;2023-08-24T19:12:51;24.30;99.90
14682;DHT22;7429;52.498;13.480;2023-08-24T19:15:59;24.30;99.90
14682;DHT22;7429;52.498;13.480;2023-08-24T19:19:04;24.20;99.90
14682;DHT22;7429;52.498;13.480;2023-08-24T19:22:08;24.20;99.90
14682;DHT22;7429;52.498;13.480;2023-08-24T19:25:17;24.20;99.90
14682;DHT22;7429;52.498;13.480;2023-08-24T19:28:20;24.30;99.90
14682;DHT22;7429;52.498;13.480;2023-08-24T19:31:26;24.20;99.90
14682;DHT22;7429;52.498;13.480;2023-08-24T19:34:55;24.10;99.90
14682;DHT22;7429;52.498;13.480;2023-08-24T19:38:02;24.00;99.90